Time;durP1;ratioP1;P1;durP2;ratioP2;P2;SDS_P1;SDS_P2;PMS_P1;PMS_P2;Temp;Humidity;BMP_temperature;BMP_pressure;BME280_temperature;BME280_humidity;BME280_pressure;Samples;Min_cycle;Max_cycle;Signal;HPM_P1;HPM_P2
2024/01/11 00:01:47;;;;;;;38.67;26.07;;;-5.10;99.90;;;;;;4942932;28;20591;-61
2024/01/11 00:04:14;;;;;;;39.47;28.33;;;-5.20;99.90;;;;;;4951295;28;20789;-60
2024/01/11 00:06:42;;;;;;;29.77;26.63;;;-5.10;99.90;;;;;;4956506;28;20202;-60
2024/01/11 00:09:10;;;;;;;34.07;27.50;;;-5.20;99.90;;;;;;4968275;28;20922;-61
2024/01/11 00:11:37;;;;;;;28.90;26.00;;;-5.20;99.90;;;;;;4960897;28;20592;-60
2024/01/11 00:14:04;;;;;;;31.07;26.97;;;-5.20;99.90;;;;;;4967542;28;20267;-61
2024/01/11 00:16:31;;;;;;;30.43;26.70;;;-5.30;99.90;;;;;;4975602;28;20194;-60
2024/01/11 00:18:58;;;;;;;32.20;27.23;;;-5.30;99.90;;;;;;4948647;28;20553;-60
2024/01/11 00:21:25;;;;;;;38.57;27.57;;;-5.30;99.90;;;;;;4969829;28;20276;-60
2024/01/11 00:23:53;;;;;;;42.07;28.73;;;-5.30;99.90;;;;;;4966449;28;20260;-60
2024/01/11 00:26:20;;;;;;;32.17;27.03;;;-5.40;99.90;;;;;;4954864;28;20197;-60
2024/01/11 00:28:47;;;;;;;36.23;27.90;;;-5.40;99.90;;;;;;4952633;28;20198;-60
2024/01/11 00:31:14;;;;;;;31.27;27.90;;;-5.40;99.90;;;;;;4934543;28;20236;-60
2024/01/11 00:33:41;;;;;;;35.90;28.83;;;-5.40;99.90;;;;;;4962262;28;20190;-60
2024/01/11 00:36:08;;;;;;;33.67;26.40;;;-5.40;99.90;;;;;;4953308;28;20233;-59
2024/01/11 00:38:35;;;;;;;40.33;27.00;;;-5.50;99.90;;;;;;4948178;28;20186;-60
2024/01/11 00:41:02;;;;;;;34.47;27.37;;;-5.50;99.90;;;;;;4960271;28;20653;-60
2024/01/11 00:43:29;;;;;;;35.50;28.20;;;-5.50;99.90;;;;;;4946064;28;20199;-60
2024/01/11 00:45:56;;;;;;;34.00;27.77;;;-5.50;99.90;;;;;;4969465;28;20815;-59
2024/01/11 00:48:23;;;;;;;37.57;29.43;;;-5.60;99.90;;;;;;4975563;28;20263;-59
2024/01/11 00:50:50;;;;;;;31.00;25.80;;;-5.60;99.90;;;;;;4979957;28;20225;-59
2024/01/11 00:53:17;;;;;;;33.37;28.37;;;-5.60;99.90;;;;;;4962293;28;20197;-60
2024/01/11 00:55:44;;;;;;;36.60;28.00;;;-5.60;99.90;;;;;;4964215;28;20613;-59
2024/01/11 00:58:11;;;;;;;37.57;27.80;;;-5.60;99.90;;;;;;4960907;28;20603;-59
2024/01/11 01:00:38;;;;;;;40.43;27.27;;;-5.60;99.90;;;;;;4956351;28;20195;-59
2024/01/11 01:03:05;;;;;;;29.37;26.47;;;-5.60;99.90;;;;;;4982193;28;20858;-59
2024/01/11 01:05:32;;;;;;;32.73;27.30;;;-5.60;99.90;;;;;;4977583;28;20202;-60
2024/01/11 01:07:59;;;;;;;37.77;29.47;;;-5.70;99.90;;;;;;4974637;28;20338;-60
2024/01/11 01:10:26;;;;;;;33.23;29.60;;;-5.70;99.90;;;;;;4961362;28;20209;-59
2024/01/11 01:12:53;;;;;;;29.53;26.40;;;-5.70;99.90;;;;;;4958977;28;20765;-60
2024/01/11 01:15:20;;;;;;;38.00;28.50;;;-5.70;99.90;;;;;;4962743;28;20297;-59
2024/01/11 01:17:47;;;;;;;33.10;27.73;;;-5.70;99.90;;;;;;4964634;28;20236;-59
2024/01/11 01:20:14;;;;;;;33.40;27.23;;;-5.80;99.90;;;;;;4960192;28;20206;-59
2024/01/11 01:22:41;;;;;;;30.80;27.60;;;-5.80;99.90;;;;;;4941907;28;20575;-59
2024/01/11 01:25:08;;;;;;;33.77;27.73;;;-5.80;99.90;;;;;;4958044;28;20202;-59
2024/01/11 01:27:35;;;;;;;33.60;28.40;;;-5.80;99.90;;;;;;4973616;28;20603;-60
2024/01/11 01:30:03;;;;;;;31.57;26.47;;;-5.80;99.90;;;;;;4972616;28;20206;-60
2024/01/11 01:32:30;;;;;;;33.53;26.87;;;-5.80;99.90;;;;;;4956144;28;20578;-60
2024/01/11 01:34:58;;;;;;;32.17;26.57;;;-5.80;99.90;;;;;;4977180;28;20483;-60
2024/01/11 01:37:25;;;;;;;38.17;29.30;;;-5.80;99.90;;;;;;4969637;28;20194;-60
2024/01/11 01:39:52;;;;;;;41.37;30.30;;;-5.90;99.90;;;;;;4973051;28;20205;-61
2024/01/11 01:42:20;;;;;;;36.93;28.43;;;-5.90;99.90;;;;;;4972029;28;20225;-60
2024/01/11 01:44:47;;;;;;;36.07;28.23;;;-5.90;99.90;;;;;;4965096;28;20190;-61
2024/01/11 01:47:14;;;;;;;34.13;26.57;;;-5.90;99.90;;;;;;4931556;28;20535;-60
2024/01/11 01:49:43;;;;;;;41.63;30.23;;;-5.90;99.90;;;;;;4959282;28;20194;-60
2024/01/11 01:52:10;;;;;;;39.17;27.50;;;-6.00;99.90;;;;;;4971761;28;20590;-61
2024/01/11 01:54:37;;;;;;;33.83;27.80;;;-6.00;99.90;;;;;;4976912;28;20214;-60
2024/01/11 01:57:07;;;;;;;35.20;27.03;;;-6.00;99.90;;;;;;4968041;28;20190;-59
2024/01/11 01:59:37;;;;;;;30.53;27.10;;;-6.00;99.90;;;;;;4967139;28;20237;-60
2024/01/11 02:02:06;;;;;;;36.93;28.37;;;-6.00;99.90;;;;;;4953823;28;20205;-60
2024/01/11 02:04:33;;;;;;;29.43;25.90;;;-6.10;99.90;;;;;;4939013;28;20210;-59
2024/01/11 02:07:01;;;;;;;38.83;27.10;;;-6.10;99.90;;;;;;4981356;28;20594;-60
2024/01/11 02:09:29;;;;;;;35.30;28.37;;;-6.20;99.90;;;;;;4976343;28;20214;-60
2024/01/11 02:11:57;;;;;;;28.93;25.33;;;-6.10;99.90;;;;;;4972362;28;20364;-60
2024/01/11 02:14:24;;;;;;;30.30;27.00;;;-6.10;99.90;;;;;;4975653;28;20195;-61
2024/01/11 02:16:51;;;;;;;30.43;24.77;;;-6.10;99.90;;;;;;4973196;28;20198;-59
2024/01/11 02:19:20;;;;;;;32.30;25.77;;;-6.20;99.90;;;;;;4957619;28;20675;-59
2024/01/11 02:21:50;;;;;;;37.60;26.50;;;-6.10;99.90;;;;;;4973576;28;20269;-59
2024/01/11 02:24:17;;;;;;;33.37;26.63;;;-6.10;99.90;;;;;;4956902;28;20220;-60
2024/01/11 02:27:02;;;;;;;34.10;26.73;;;-6.10;99.90;;;;;;4953102;28;20264;-60
2024/01/11 02:29:30;;;;;;;29.33;26.20;;;-6.20;99.90;;;;;;4977661;28;20216;-60
2024/01/11 02:31:59;;;;;;;35.27;27.53;;;-6.20;99.90;;;;;;4976777;28;20197;-60
2024/01/11 02:34:27;;;;;;;34.03;27.13;;;-6.20;99.90;;;;;;4956816;28;20232;-60
2024/01/11 02:36:55;;;;;;;31.13;26.30;;;-6.30;99.90;;;;;;4970926;28;20353;-61
2024/01/11 02:39:24;;;;;;;27.40;24.30;;;-6.20;99.90;;;;;;4950273;28;20199;-61
2024/01/11 02:41:53;;;;;;;35.87;27.37;;;-6.30;99.90;;;;;;4973057;28;20792;-60
2024/01/11 02:44:20;;;;;;;28.80;25.80;;;-6.30;99.90;;;;;;4973563;28;20217;-60
2024/01/11 02:46:47;;;;;;;32.63;26.63;;;-6.30;99.90;;;;;;4972643;28;20916;-61
2024/01/11 02:49:14;;;;;;;32.87;28.70;;;-6.30;99.90;;;;;;4957530;28;20194;-61
2024/01/11 02:51:42;;;;;;;35.43;27.20;;;-6.30;99.90;;;;;;4964418;28;20178;-60
2024/01/11 02:54:09;;;;;;;39.90;27.27;;;-6.30;99.90;;;;;;4961311;28;20729;-61
2024/01/11 02:56:35;;;;;;;32.03;25.37;;;-6.30;99.90;;;;;;4950679;28;20671;-60
2024/01/11 02:59:03;;;;;;;32.73;26.17;;;-6.30;99.90;;;;;;4965317;28;20686;-61
2024/01/11 03:05:29;;;;;;;29.80;26.63;;;-6.40;99.90;;;;;;4971423;28;20180;-61
2024/01/11 03:07:57;;;;;;;32.60;26.20;;;-6.40;99.90;;;;;;4975385;28;20245;-60
2024/01/11 03:10:23;;;;;;;30.13;26.70;;;-6.50;99.90;;;;;;4963077;28;20198;-60
2024/01/11 03:12:51;;;;;;;31.23;25.70;;;-6.40;99.90;;;;;;4960268;28;20222;-60
2024/01/11 03:15:18;;;;;;;30.93;26.57;;;-6.50;99.90;;;;;;4948508;28;20222;-60
2024/01/11 03:17:45;;;;;;;28.77;25.77;;;-6.40;99.90;;;;;;4952431;28;20261;-62
2024/01/11 03:20:12;;;;;;;32.03;27.37;;;-6.40;99.90;;;;;;4949451;28;20661;-60
2024/01/11 03:22:46;;;;;;;32.43;26.53;;;-6.40;99.90;;;;;;4972719;28;20651;-60
2024/01/11 03:25:13;;;;;;;33.43;25.73;;;-6.40;99.90;;;;;;4952545;28;20261;-60
2024/01/11 03:27:40;;;;;;;29.20;24.57;;;-6.40;99.90;;;;;;4948566;28;20313;-59
2024/01/11 03:30:07;;;;;;;31.57;25.40;;;-6.40;99.90;;;;;;4966985;28;20198;-59
2024/01/11 03:32:34;;;;;;;28.83;25.77;;;-6.40;99.90;;;;;;4954101;28;20213;-60
2024/01/11 03:35:02;;;;;;;32.20;25.50;;;-6.50;99.90;;;;;;4955028;28;20282;-59
2024/01/11 03:37:29;;;;;;;32.10;25.77;;;-6.40;99.90;;;;;;4966887;28;20632;-59
2024/01/11 03:39:56;;;;;;;32.63;28.23;;;-6.40;99.90;;;;;;4967601;28;20222;-59
2024/01/11 03:42:24;;;;;;;34.20;25.40;;;-6.40;99.90;;;;;;4973406;28;20582;-60
2024/01/11 03:44:51;;;;;;;34.07;28.00;;;-6.40;99.90;;;;;;4942037;28;20424;-60
2024/01/11 03:47:18;;;;;;;35.03;28.23;;;-6.40;99.90;;;;;;4957112;28;20194;-60
2024/01/11 03:49:45;;;;;;;39.77;28.77;;;-6.40;99.90;;;;;;4954647;28;20213;-59
2024/01/11 03:52:12;;;;;;;32.57;27.00;;;-6.40;99.90;;;;;;4946640;28;20219;-60
2024/01/11 03:54:39;;;;;;;33.73;26.30;;;-6.40;99.90;;;;;;4974266;28;20338;-60
2024/01/11 03:57:06;;;;;;;32.40;25.80;;;-6.40;99.90;;;;;;4949307;28;20219;-60
2024/01/11 03:59:33;;;;;;;35.83;28.13;;;-6.40;99.90;;;;;;4948861;28;20202;-60
2024/01/11 04:02:00;;;;;;;31.80;26.10;;;-6.40;99.90;;;;;;4936220;28;20669;-60
2024/01/11 04:04:27;;;;;;;37.07;27.67;;;-6.40;99.90;;;;;;4955934;28;20201;-60
2024/01/11 04:06:54;;;;;;;31.97;26.10;;;-6.50;99.90;;;;;;4954270;28;20206;-60
2024/01/11 04:09:21;;;;;;;33.57;28.13;;;-6.50;99.90;;;;;;4957496;28;20198;-60
2024/01/11 04:11:48;;;;;;;33.87;27.30;;;-6.50;99.90;;;;;;4967893;28;20229;-60
2024/01/11 04:14:15;;;;;;;29.93;26.37;;;-6.50;99.90;;;;;;4950081;28;20494;-60
2024/01/11 04:16:42;;;;;;;31.60;25.53;;;-6.50;99.90;;;;;;4969770;28;20218;-60
2024/01/11 04:19:09;;;;;;;31.90;25.47;;;-6.50;99.90;;;;;;4931958;28;20284;-60
2024/01/11 04:21:40;;;;;;;32.33;28.03;;;-6.60;99.90;;;;;;4952817;28;20190;-60
2024/01/11 04:24:07;;;;;;;43.33;28.27;;;-6.50;99.90;;;;;;4956241;28;20190;-60
2024/01/11 04:26:35;;;;;;;31.87;27.00;;;-6.50;99.90;;;;;;4976890;28;20198;-60
2024/01/11 04:29:05;;;;;;;30.43;25.37;;;-6.50;99.90;;;;;;4951921;28;20205;-60
2024/01/11 04:31:32;;;;;;;39.43;30.53;;;-6.60;99.90;;;;;;4956251;28;20801;-61
2024/01/11 04:33:59;;;;;;;35.97;26.93;;;-6.60;99.90;;;;;;4982792;28;20658;-60
2024/01/11 04:36:26;;;;;;;37.23;27.27;;;-6.60;99.90;;;;;;4972031;28;20589;-60
2024/01/11 04:38:53;;;;;;;35.17;28.07;;;-6.70;99.90;;;;;;4970904;28;20229;-60
2024/01/11 04:41:20;;;;;;;39.83;28.67;;;-6.70;99.90;;;;;;4951995;28;20655;-60
2024/01/11 04:43:47;;;;;;;36.97;29.73;;;-6.70;99.90;;;;;;4962550;28;20204;-60
2024/01/11 04:46:21;;;;;;;36.40;26.50;;;-6.70;99.90;;;;;;4977490;28;20205;-60
2024/01/11 04:48:49;;;;;;;28.23;25.30;;;-6.70;99.90;;;;;;4959948;28;20197;-61
2024/01/11 04:51:17;;;;;;;44.33;29.60;;;-6.70;99.90;;;;;;4957489;28;20212;-60
2024/01/11 04:53:45;;;;;;;34.20;26.17;;;-6.70;99.90;;;;;;4967559;28;20297;-60
2024/01/11 04:56:14;;;;;;;38.97;28.03;;;-6.70;99.90;;;;;;4951353;28;20224;-60
2024/01/11 04:58:43;;;;;;;31.00;26.57;;;-6.70;99.90;;;;;;4968531;28;20660;-60
2024/01/11 05:01:14;;;;;;;31.83;25.77;;;-6.60;99.90;;;;;;4954371;28;20220;-60
2024/01/11 05:03:42;;;;;;;35.97;29.20;;;-6.70;99.90;;;;;;4977687;28;20221;-61
2024/01/11 05:06:16;;;;;;;41.00;28.63;;;-6.60;99.90;;;;;;4967098;28;20223;-61
2024/01/11 05:08:44;;;;;;;30.33;27.43;;;-6.70;99.90;;;;;;4966371;28;20198;-61
2024/01/11 05:11:26;;;;;;;40.03;27.17;;;-6.70;99.90;;;;;;4959745;28;20245;-60
2024/01/11 05:13:53;;;;;;;33.23;28.13;;;-6.70;99.90;;;;;;4974343;28;20199;-61
2024/01/11 05:16:25;;;;;;;32.53;26.20;;;-6.70;99.90;;;;;;4953385;28;20213;-60
2024/01/11 05:18:53;;;;;;;37.83;26.93;;;-6.70;99.90;;;;;;4969370;28;20202;-60
2024/01/11 05:21:21;;;;;;;32.70;26.70;;;-6.70;99.90;;;;;;4969867;28;20191;-60
2024/01/11 05:23:48;;;;;;;30.57;26.33;;;-6.70;99.90;;;;;;4970597;28;20198;-60
2024/01/11 05:26:16;;;;;;;30.83;26.83;;;-6.70;99.90;;;;;;4969223;28;20229;-61
2024/01/11 05:28:44;;;;;;;29.60;25.60;;;-6.70;99.90;;;;;;4974531;28;20198;-60
2024/01/11 05:31:12;;;;;;;32.13;26.80;;;-6.70;99.90;;;;;;4958419;28;20741;-61
2024/01/11 05:33:39;;;;;;;39.53;27.67;;;-6.70;99.90;;;;;;4968211;28;20297;-60
2024/01/11 05:36:07;;;;;;;32.67;28.20;;;-6.70;99.90;;;;;;4952570;28;20214;-61
2024/01/11 05:38:35;;;;;;;41.47;28.80;;;-6.80;99.90;;;;;;4951826;28;20598;-61
2024/01/11 05:41:02;;;;;;;32.73;27.87;;;-6.70;99.90;;;;;;4956479;28;20253;-61
2024/01/11 05:43:29;;;;;;;35.07;26.97;;;-6.70;99.90;;;;;;4971771;28;20390;-61
2024/01/11 05:45:56;;;;;;;30.23;27.00;;;-6.70;99.90;;;;;;4952542;28;20674;-61
2024/01/11 05:48:23;;;;;;;32.00;26.97;;;-6.80;99.90;;;;;;4980745;28;20200;-61
2024/01/11 05:50:50;;;;;;;33.23;27.37;;;-7.00;99.90;;;;;;4940174;28;20209;-61
2024/01/11 05:53:20;;;;;;;37.27;27.53;;;-7.00;99.90;;;;;;4973391;28;20265;-61
2024/01/11 05:55:48;;;;;;;30.53;27.20;;;-7.00;99.90;;;;;;4953549;28;20568;-61
2024/01/11 05:58:16;;;;;;;29.93;26.50;;;-7.00;99.90;;;;;;4975784;28;20279;-61
2024/01/11 06:00:43;;;;;;;36.67;27.00;;;-7.00;99.90;;;;;;4952482;28;20202;-61
2024/01/11 06:03:12;;;;;;;31.27;25.53;;;-7.00;99.90;;;;;;4954060;28;20198;-61
2024/01/11 06:05:39;;;;;;;29.60;26.40;;;-7.00;99.90;;;;;;4972587;28;20214;-61
2024/01/11 06:08:07;;;;;;;30.63;25.50;;;-7.00;99.90;;;;;;4969973;28;20722;-61
2024/01/11 06:10:34;;;;;;;36.13;27.03;;;-6.90;99.90;;;;;;4959667;28;20277;-60
2024/01/11 06:13:01;;;;;;;36.33;30.60;;;-6.80;99.90;;;;;;4968446;28;20571;-60
2024/01/11 06:15:28;;;;;;;41.10;29.13;;;-6.80;99.90;;;;;;4956199;28;20225;-59
2024/01/11 06:17:55;;;;;;;44.07;30.47;;;-6.90;99.90;;;;;;4960080;28;20595;-59
2024/01/11 06:20:22;;;;;;;43.67;30.27;;;-6.90;99.90;;;;;;4963520;28;20573;-60
2024/01/11 06:22:49;;;;;;;45.13;32.67;;;-6.80;99.90;;;;;;4974594;28;20561;-59
2024/01/11 06:25:16;;;;;;;43.47;29.60;;;-6.80;99.90;;;;;;4971000;28;20219;-59
2024/01/11 06:27:45;;;;;;;50.53;28.87;;;-6.80;99.90;;;;;;4960148;28;20206;-59
2024/01/11 06:30:13;;;;;;;36.20;27.60;;;-6.80;99.90;;;;;;4957524;28;20202;-60
2024/01/11 06:32:40;;;;;;;40.07;28.20;;;-6.70;99.90;;;;;;4968815;28;20301;-60
2024/01/11 06:35:07;;;;;;;42.53;29.20;;;-6.70;99.90;;;;;;4953719;28;20294;-59
2024/01/11 06:37:34;;;;;;;33.43;28.50;;;-6.70;99.90;;;;;;4956940;28;20233;-59
2024/01/11 06:40:03;;;;;;;37.63;31.03;;;-6.70;99.90;;;;;;4979400;28;20225;-59
2024/01/11 06:42:33;;;;;;;41.70;31.37;;;-6.70;99.90;;;;;;4946440;28;20225;-60
2024/01/11 06:45:01;;;;;;;45.53;31.13;;;-6.70;99.90;;;;;;4963058;28;20257;-60
2024/01/11 06:47:28;;;;;;;39.80;28.97;;;-6.70;99.90;;;;;;4972484;28;20201;-60
2024/01/11 06:49:55;;;;;;;38.07;27.27;;;-6.80;99.90;;;;;;4964628;28;20273;-60
2024/01/11 06:52:22;;;;;;;39.70;29.30;;;-6.70;99.90;;;;;;4973058;28;20190;-60
2024/01/11 06:54:49;;;;;;;42.07;27.90;;;-6.70;99.90;;;;;;4969878;28;20245;-59
2024/01/11 06:57:16;;;;;;;46.90;29.47;;;-6.80;99.90;;;;;;4939988;28;20790;-60
2024/01/11 06:59:46;;;;;;;52.83;32.97;;;-6.80;99.90;;;;;;4974854;28;20248;-60
2024/01/11 07:02:13;;;;;;;44.33;33.93;;;-6.80;99.90;;;;;;4953151;28;20213;-60
2024/01/11 07:04:44;;;;;;;61.53;36.40;;;-6.80;99.90;;;;;;4956286;28;20198;-60
2024/01/11 07:07:11;;;;;;;64.37;37.00;;;-6.80;99.90;;;;;;4971451;28;20201;-61
2024/01/11 07:09:39;;;;;;;76.43;36.67;;;-6.80;99.90;;;;;;4970924;28;20249;-60
2024/01/11 07:12:06;;;;;;;75.07;41.10;;;-6.80;99.90;;;;;;4954042;28;20735;-60
2024/01/11 07:14:33;;;;;;;127.83;48.97;;;-6.70;99.90;;;;;;4978647;28;20198;-61
2024/01/11 07:17:00;;;;;;;68.80;39.87;;;-6.70;99.90;;;;;;4978444;28;20249;-60
2024/01/11 07:19:27;;;;;;;58.83;34.90;;;-6.70;99.90;;;;;;4971120;28;20197;-60
2024/01/11 07:21:54;;;;;;;48.03;32.67;;;-6.60;99.90;;;;;;4953251;28;20741;-60
2024/01/11 07:24:21;;;;;;;88.37;44.83;;;-6.60;99.90;;;;;;4949182;28;20246;-61
2024/01/11 07:26:48;;;;;;;74.87;38.07;;;-6.60;99.90;;;;;;4979201;28;20275;-60
2024/01/11 07:29:14;;;;;;;68.10;37.73;;;-6.60;99.90;;;;;;4977752;28;20201;-60
2024/01/11 07:31:41;;;;;;;67.40;35.77;;;-6.50;99.90;;;;;;4986639;28;20186;-60
2024/01/11 07:34:08;;;;;;;58.50;35.17;;;-6.50;99.90;;;;;;4969671;28;20218;-60
2024/01/11 07:36:35;;;;;;;52.20;34.87;;;-6.50;99.90;;;;;;4973737;28;20279;-60
2024/01/11 07:39:02;;;;;;;79.50;41.20;;;-6.40;99.90;;;;;;4956160;28;20284;-59
2024/01/11 07:41:29;;;;;;;52.20;37.10;;;-6.30;99.90;;;;;;4974401;28;20239;-59
2024/01/11 07:43:58;;;;;;;47.10;31.43;;;-6.30;99.90;;;;;;4969653;28;20213;-59
2024/01/11 07:46:25;;;;;;;40.33;31.00;;;-6.40;99.90;;;;;;4954360;28;20198;-60
2024/01/11 07:49:05;;;;;;;44.90;31.67;;;-6.40;99.90;;;;;;4975146;28;20287;-59
2024/01/11 07:51:34;;;;;;;41.17;30.80;;;-6.20;99.90;;;;;;4956655;28;20201;-59
2024/01/11 07:54:02;;;;;;;39.77;30.37;;;-6.10;99.90;;;;;;4940249;28;20256;-60
2024/01/11 07:56:29;;;;;;;39.67;29.63;;;-6.00;99.90;;;;;;4986378;28;20565;-60
2024/01/11 07:58:57;;;;;;;33.73;28.47;;;-6.00;99.90;;;;;;4971347;28;20190;-60
2024/01/11 08:01:24;;;;;;;44.53;28.70;;;-5.80;99.90;;;;;;4950993;28;20195;-60
2024/01/11 08:03:54;;;;;;;38.13;30.27;;;-5.70;99.90;;;;;;4953493;28;20220;-60
2024/01/11 08:06:21;;;;;;;51.70;33.93;;;-5.70;99.90;;;;;;4963093;28;20328;-59
2024/01/11 08:08:51;;;;;;;45.70;30.03;;;-5.70;99.90;;;;;;4953415;28;20255;-60
2024/01/11 08:11:19;;;;;;;42.57;30.87;;;-5.60;99.90;;;;;;4969834;28;20306;-60
2024/01/11 08:13:46;;;;;;;39.80;29.97;;;-5.60;99.90;;;;;;4955719;28;20206;-60
2024/01/11 08:16:20;;;;;;;40.80;29.20;;;-5.60;99.90;;;;;;4975357;28;20303;-60
2024/01/11 08:18:48;;;;;;;47.70;29.57;;;-5.70;99.90;;;;;;4975640;28;20277;-60
2024/01/11 08:21:16;;;;;;;41.30;31.37;;;-5.70;99.90;;;;;;4939324;28;20269;-60
2024/01/11 08:23:48;;;;;;;36.33;27.73;;;-5.60;99.90;;;;;;4952632;28;20218;-59
2024/01/11 08:26:18;;;;;;;44.30;29.80;;;-5.50;99.90;;;;;;4972483;28;20205;-59
2024/01/11 08:28:46;;;;;;;42.47;29.67;;;-5.50;99.90;;;;;;4974654;28;20743;-59
2024/01/11 08:31:13;;;;;;;30.67;27.37;;;-5.60;99.90;;;;;;4971707;28;20209;-59
2024/01/11 08:33:40;;;;;;;30.60;26.37;;;-5.50;99.90;;;;;;4956382;28;20740;-60
2024/01/11 08:36:07;;;;;;;39.13;28.33;;;-5.50;99.90;;;;;;4973959;28;20220;-62
2024/01/11 08:38:35;;;;;;;35.37;28.83;;;-5.40;99.90;;;;;;4958187;28;20260;-60
2024/01/11 08:41:03;;;;;;;39.80;27.80;;;-5.30;99.90;;;;;;4983216;28;20225;-60
2024/01/11 08:43:30;;;;;;;36.67;28.30;;;-5.10;99.90;;;;;;4969946;28;20223;-60
2024/01/11 08:45:57;;;;;;;36.57;28.27;;;-5.00;99.90;;;;;;4958513;28;20288;-60
2024/01/11 08:48:25;;;;;;;37.60;26.73;;;-4.90;99.90;;;;;;4975851;28;20194;-61
2024/01/11 08:50:52;;;;;;;37.00;30.03;;;-4.80;99.90;;;;;;4958320;28;20189;-59
2024/01/11 08:53:19;;;;;;;39.23;26.53;;;-4.80;99.90;;;;;;4960379;28;20296;-59
2024/01/11 08:55:47;;;;;;;42.67;32.47;;;-4.60;99.90;;;;;;4951737;28;20197;-60
2024/01/11 08:58:14;;;;;;;39.73;30.47;;;-4.50;99.90;;;;;;4960473;28;20217;-59
2024/01/11 09:00:41;;;;;;;33.03;28.23;;;-4.40;99.90;;;;;;4964862;28;20279;-59
2024/01/11 09:03:08;;;;;;;35.73;27.83;;;-4.30;99.90;;;;;;4967379;28;20670;-60
2024/01/11 09:05:35;;;;;;;37.23;29.43;;;-4.30;99.90;;;;;;4954356;28;20362;-60
2024/01/11 09:08:04;;;;;;;44.37;29.77;;;-4.20;99.90;;;;;;4952225;28;20524;-59
2024/01/11 09:10:33;;;;;;;40.20;28.43;;;-4.10;99.90;;;;;;4952446;28;20213;-61
2024/01/11 09:13:00;;;;;;;40.27;29.53;;;-4.00;99.90;;;;;;4966706;28;20264;-61
2024/01/11 09:15:27;;;;;;;37.30;28.07;;;-4.00;99.90;;;;;;4970703;28;20729;-60
2024/01/11 09:17:54;;;;;;;43.50;28.40;;;-3.90;99.90;;;;;;4982104;28;20329;-60
2024/01/11 09:20:22;;;;;;;44.40;28.03;;;-3.80;99.90;;;;;;4969723;28;20204;-61
2024/01/11 09:22:48;;;;;;;43.50;29.47;;;-3.70;99.90;;;;;;4970328;28;20190;-61
2024/01/11 09:25:16;;;;;;;37.93;29.43;;;-3.60;99.90;;;;;;4956439;28;20577;-61
2024/01/11 09:27:42;;;;;;;45.90;32.27;;;-2.70;99.90;;;;;;4974087;28;20210;-61
2024/01/11 09:30:10;;;;;;;36.03;29.80;;;2.50;99.90;;;;;;4979106;28;20269;-61
2024/01/11 09:32:37;;;;;;;32.33;27.67;;;5.90;99.90;;;;;;4946039;28;20199;-61
2024/01/11 09:35:04;;;;;;;38.80;29.77;;;7.60;99.90;;;;;;4950792;28;20229;-61
2024/01/11 09:37:32;;;;;;;41.47;30.67;;;9.10;99.90;;;;;;4966769;28;20671;-61
2024/01/11 09:40:00;;;;;;;38.77;30.07;;;9.70;99.90;;;;;;4971082;28;20398;-62
2024/01/11 09:42:28;;;;;;;44.13;32.67;;;11.00;99.90;;;;;;4970505;28;20290;-62
2024/01/11 09:44:56;;;;;;;44.23;32.87;;;11.60;99.90;;;;;;4951373;28;20199;-61
2024/01/11 09:47:24;;;;;;;45.33;33.77;;;11.90;99.90;;;;;;4975928;28;20255;-61
2024/01/11 09:49:56;;;;;;;40.23;33.30;;;12.40;99.90;;;;;;4981172;28;20205;-69
2024/01/11 09:52:25;;;;;;;49.23;36.10;;;13.10;99.90;;;;;;4961508;28;20218;-62
2024/01/11 09:54:52;;;;;;;39.75;34.40;;;12.70;99.90;;;;;;4957267;28;20968;-61
2024/01/11 09:57:25;;;;;;;46.25;36.03;;;14.00;99.90;;;;;;4942878;28;20618;-60
2024/01/11 09:59:55;;;;;;;54.53;40.17;;;13.40;99.90;;;;;;4969046;28;20753;-60
2024/01/11 10:02:29;;;;;;;45.05;35.28;;;14.80;99.90;;;;;;4969219;28;20213;-61
2024/01/11 10:04:56;;;;;;;58.53;39.63;;;14.60;99.90;;;;;;4954645;28;20268;-60
2024/01/11 10:07:27;;;;;;;44.33;35.67;;;14.80;99.90;;;;;;4964082;28;20190;-61
2024/01/11 10:09:54;;;;;;;54.83;38.47;;;15.40;99.90;;;;;;4979687;28;20201;-61
2024/01/11 10:12:24;;;;;;;53.92;38.72;;;14.80;99.90;;;;;;4978235;28;20563;-61
2024/01/11 10:14:52;;;;;;;50.05;38.15;;;13.30;99.90;;;;;;4982200;28;20277;-60
2024/01/11 10:17:20;;;;;;;48.92;35.92;;;14.40;99.90;;;;;;4970177;28;20324;-61
2024/01/11 10:19:53;;;;;;;48.55;36.97;;;14.40;99.90;;;;;;4969422;28;20187;-63
2024/01/11 10:22:21;;;;;;;48.47;37.20;;;14.90;99.90;;;;;;4936929;28;20322;-60
2024/01/11 10:25:11;;;;;;;47.65;36.92;;;15.90;99.90;;;;;;4966045;28;20341;-60
2024/01/11 10:27:43;;;;;;;51.08;38.40;;;15.60;99.90;;;;;;4968127;28;20203;-60
2024/01/11 10:30:19;;;;;;;45.25;37.80;;;15.20;99.90;;;;;;4984122;28;20189;-61
2024/01/11 10:32:47;;;;;;;47.88;36.90;;;16.40;99.90;;;;;;4976710;28;20208;-61
2024/01/11 10:35:17;;;;;;;49.00;37.45;;;16.90;99.90;;;;;;4975253;28;20207;-61
2024/01/11 10:37:44;;;;;;;49.35;39.55;;;17.00;99.90;;;;;;4970134;28;20265;-60
2024/01/11 10:40:12;;;;;;;50.40;39.00;;;17.20;99.90;;;;;;4968147;28;20213;-60
2024/01/11 10:42:45;;;;;;;45.45;37.97;;;14.60;99.90;;;;;;4957258;28;20498;-60
2024/01/11 10:45:18;;;;;;;47.70;39.38;;;13.70;99.90;;;;;;4952793;28;20290;-60
2024/01/11 10:47:58;;;;;;;46.47;36.42;;;12.50;99.90;;;;;;4973830;28;20197;-60
2024/01/11 10:50:41;;;;;;;48.28;37.30;;;14.30;99.90;;;;;;4975474;28;20200;-60
2024/01/11 10:53:14;;;;;;;46.33;37.50;;;14.10;99.90;;;;;;4970300;28;20190;-60
2024/01/11 10:55:42;;;;;;;48.45;38.55;;;14.90;99.90;;;;;;4975578;28;20275;-60
2024/01/11 10:58:10;;;;;;;56.45;39.33;;;15.20;99.90;;;;;;4969258;28;20221;-60
2024/01/11 11:00:37;;;;;;;52.53;39.00;;;16.20;99.90;;;;;;4950568;28;20200;-68
2024/01/11 11:03:06;;;;;;;51.50;38.67;;;16.30;99.90;;;;;;4970697;28;20257;-65
2024/01/11 11:05:35;;;;;;;48.28;39.00;;;16.80;99.90;;;;;;4967917;28;20239;-61
2024/01/11 11:08:03;;;;;;;50.33;39.05;;;17.10;99.90;;;;;;4966414;28;20202;-60
2024/01/11 11:10:34;;;;;;;49.00;38.75;;;16.50;99.90;;;;;;4971076;28;20217;-60
2024/01/11 11:13:00;;;;;;;48.13;38.00;;;16.70;99.90;;;;;;4970224;28;20211;-60
2024/01/11 11:15:30;;;;;;;48.20;37.90;;;16.40;99.90;;;;;;4973651;28;20233;-60
2024/01/11 11:17:57;;;;;;;44.35;36.53;;;16.60;99.90;;;;;;4957091;28;20548;-60
2024/01/11 11:20:27;;;;;;;54.92;37.90;;;16.10;99.90;;;;;;4977344;28;20212;-60
2024/01/11 11:23:05;;;;;;;49.25;37.70;;;15.60;99.90;;;;;;4941129;28;20209;-60
2024/01/11 11:25:33;;;;;;;45.17;36.42;;;15.50;99.90;;;;;;4981556;28;20434;-60
2024/01/11 11:28:04;;;;;;;50.15;39.03;;;15.80;99.90;;;;;;4962461;28;20201;-61
2024/01/11 11:30:33;;;;;;;45.90;36.47;;;16.30;99.90;;;;;;4944922;28;20714;-61
2024/01/11 11:33:25;;;;;;;45.65;36.88;;;15.00;99.90;;;;;;4935624;28;20222;-61
2024/01/11 11:35:54;;;;;;;46.53;36.55;;;15.40;99.90;;;;;;4963702;28;20500;-61
2024/01/11 11:38:24;;;;;;;46.53;36.45;;;15.00;99.90;;;;;;4938240;29;20235;-61
2024/01/11 11:40:52;;;;;;;51.90;37.58;;;13.90;99.90;;;;;;4968883;28;20610;-62
2024/01/11 11:43:21;;;;;;;53.03;36.45;;;14.20;99.90;;;;;;4971925;28;20314;-61
2024/01/11 11:45:50;;;;;;;45.38;35.65;;;14.50;99.90;;;;;;4970247;28;20257;-61
2024/01/11 11:48:29;;;;;;;47.08;36.47;;;14.30;99.90;;;;;;4976938;28;20690;-63
2024/01/11 11:51:11;;;;;;;45.90;36.22;;;13.40;99.90;;;;;;4940247;28;20236;-62
2024/01/11 11:53:41;;;;;;;46.63;36.95;;;13.80;99.90;;;;;;4958053;28;20544;-61
2024/01/11 11:56:10;;;;;;;47.47;37.47;;;14.20;99.90;;;;;;4979234;28;20285;-61
2024/01/11 11:58:41;;;;;;;51.63;38.20;;;13.30;99.90;;;;;;4969032;28;20206;-62
2024/01/11 12:01:08;;;;;;;47.22;37.28;;;13.10;99.90;;;;;;4954811;28;20213;-62
2024/01/11 12:03:41;;;;;;;46.33;35.33;;;12.90;99.90;;;;;;4955623;28;20201;-62
2024/01/11 12:06:10;;;;;;;50.38;37.60;;;12.20;99.90;;;;;;4956080;28;20252;-61
2024/01/11 12:08:41;;;;;;;46.63;36.97;;;12.10;99.90;;;;;;4952307;28;20281;-61
2024/01/11 12:11:08;;;;;;;51.03;35.50;;;11.40;99.90;;;;;;4952418;28;20777;-62
2024/01/11 12:13:35;;;;;;;46.20;35.57;;;9.60;99.90;;;;;;4952183;28;20214;-62
2024/01/11 12:16:03;;;;;;;42.80;34.20;;;9.50;99.90;;;;;;4975919;28;20718;-62
2024/01/11 12:18:30;;;;;;;44.57;33.90;;;9.90;99.90;;;;;;4935904;28;20280;-61
2024/01/11 12:20:57;;;;;;;51.50;33.93;;;9.60;99.90;;;;;;4957015;28;20506;-62
2024/01/11 12:23:29;;;;;;;45.20;34.90;;;8.60;99.90;;;;;;4952835;28;20206;-61
2024/01/11 12:26:02;;;;;;;43.73;33.07;;;7.30;99.90;;;;;;4970808;28;20721;-61
2024/01/11 12:28:30;;;;;;;37.43;31.10;;;7.10;99.90;;;;;;4975334;28;20199;-62
2024/01/11 12:30:57;;;;;;;41.70;30.93;;;7.80;99.90;;;;;;4952531;28;20285;-61
2024/01/11 12:33:26;;;;;;;38.70;31.70;;;8.30;99.90;;;;;;4950109;28;20604;-61
2024/01/11 12:35:53;;;;;;;37.17;30.67;;;8.90;99.90;;;;;;4972760;28;20206;-61
2024/01/11 12:38:21;;;;;;;42.80;31.17;;;8.70;99.90;;;;;;4951213;28;20593;-61